Time;durP1;ratioP1;P1;durP2;ratioP2;P2;SDS_P1;SDS_P2;PMS_P1;PMS_P2;Temp;Humidity;BMP_temperature;BMP_pressure;BME280_temperature;BME280_humidity;BME280_pressure;Samples;Min_cycle;Max_cycle;Signal;HPM_P1;HPM_P2
2021/07/29 00:00:35;;;;;;;7.65;4.70;;;;;;;19.89;97.05;97772.31;5051929;28;20077;-80
2021/07/29 00:03:01;;;;;;;9.00;4.78;;;;;;;19.83;97.94;97765.44;5052729;28;20028;-80
2021/07/29 00:05:27;;;;;;;6.00;4.32;;;;;;;19.71;98.79;97775.44;5051659;28;20033;-79
2021/07/29 00:07:53;;;;;;;6.47;4.40;;;;;;;19.73;98.67;97775.09;5051546;28;20563;-78
2021/07/29 00:10:19;;;;;;;8.15;4.68;;;;;;;19.65;98.69;97774.13;5053243;28;20017;-78
2021/07/29 00:12:45;;;;;;;6.72;5.05;;;;;;;19.70;98.43;97775.81;5053266;28;20136;-79
2021/07/29 00:15:12;;;;;;;10.52;4.85;;;;;;;19.87;97.43;97774.63;5052770;28;20499;-78
2021/07/29 00:20:19;;;;;;;9.70;6.72;;;;;;;19.83;97.27;97771.75;5053083;28;20058;-79
2021/07/29 00:22:45;;;;;;;8.15;5.10;;;;;;;20.00;96.51;97773.34;5052930;28;20064;-79
2021/07/29 00:25:14;;;;;;;5.00;4.05;;;;;;;20.06;96.26;97774.69;5052700;28;20040;-80
2021/07/29 00:27:43;;;;;;;5.95;4.45;;;;;;;19.93;97.19;97774.00;5052679;28;20029;-80
2021/07/29 00:30:10;;;;;;;7.07;4.50;;;;;;;19.86;98.08;97771.03;5052112;28;20057;-78
2021/07/29 00:32:36;;;;;;;12.15;3.92;;;;;;;19.73;98.59;97770.34;5051699;28;20025;-80
2021/07/29 00:35:04;;;;;;;6.70;3.80;;;;;;;19.57;99.55;97763.22;5050027;28;20036;-80
2021/07/29 00:37:30;;;;;;;10.20;3.90;;;;;;;19.50;99.98;97768.56;5050291;28;20426;-80
2021/07/29 00:39:55;;;;;;;9.63;4.32;;;;;;;19.63;99.02;97764.53;5050841;28;20025;-78
2021/07/29 00:42:21;;;;;;;5.85;4.07;;;;;;;19.70;98.08;97759.19;5049910;28;20029;-79
2021/07/29 00:44:46;;;;;;;5.55;3.92;;;;;;;19.80;97.03;97764.16;5049889;28;20480;-81
2021/07/29 00:47:14;;;;;;;10.45;4.20;;;;;;;19.55;98.11;97760.78;5050963;28;20032;-80
2021/07/29 00:49:39;;;;;;;6.07;3.72;;;;;;;19.59;98.53;97766.41;5049762;28;20094;-79
2021/07/29 00:52:05;;;;;;;5.65;3.90;;;;;;;19.64;98.27;97766.16;5051159;28;20461;-80
2021/07/29 00:54:30;;;;;;;11.18;4.60;;;;;;;19.60;97.96;97766.06;5050157;28;20029;-79
2021/07/29 00:56:57;;;;;;;13.65;4.35;;;;;;;19.64;97.88;97768.94;5049339;28;20033;-81
2021/07/29 00:59:23;;;;;;;9.35;3.95;;;;;;;19.56;98.87;97770.72;5050997;28;20025;-81
2021/07/29 01:01:49;;;;;;;5.85;4.53;;;;;;;19.44;99.25;97767.22;5050952;28;20495;-80
2021/07/29 01:04:14;;;;;;;7.95;4.20;;;;;;;19.41;100.00;97767.94;5049335;28;20025;-81
2021/07/29 01:06:40;;;;;;;5.57;4.18;;;;;;;19.61;98.40;97762.09;5050919;28;20128;-81
2021/07/29 01:09:10;;;;;;;6.38;4.28;;;;;;;19.59;98.14;97763.63;5049459;28;20451;-80
2021/07/29 01:11:37;;;;;;;6.57;3.83;;;;;;;19.57;98.29;97768.75;5050805;28;20074;-79
2021/07/29 01:14:03;;;;;;;7.47;4.30;;;;;;;19.46;99.26;97760.16;5050711;28;20033;-79
2021/07/29 01:16:28;;;;;;;6.07;3.90;;;;;;;19.26;100.00;97761.97;5050813;28;20021;-81
2021/07/29 01:18:55;;;;;;;10.45;4.35;;;;;;;19.29;100.00;97765.22;5050930;28;20419;-80
2021/07/29 01:21:20;;;;;;;17.77;4.68;;;;;;;19.23;99.98;97762.69;5050284;28;20534;-80
2021/07/29 01:23:46;;;;;;;5.13;3.47;;;;;;;19.42;99.26;97769.56;5050429;28;20032;-79
2021/07/29 01:26:11;;;;;;;11.40;4.05;;;;;;;19.18;100.00;97768.50;5048961;28;20548;-79
2021/07/29 01:28:37;;;;;;;5.90;4.50;;;;;;;19.16;100.00;97773.63;5050554;28;20029;-80
2021/07/29 01:31:03;;;;;;;8.65;4.00;;;;;;;19.22;99.67;97761.09;5006979;28;1238156;-80
2021/07/29 01:33:28;;;;;;;8.63;3.88;;;;;;;19.34;99.33;97767.72;5049964;28;20489;-80
2021/07/29 01:35:53;;;;;;;6.10;3.97;;;;;;;19.36;98.75;97762.63;5049800;28;20083;-79
2021/07/29 01:38:19;;;;;;;9.95;3.90;;;;;;;19.40;98.87;97777.41;5051385;28;20040;-79
2021/07/29 01:40:44;;;;;;;6.68;3.92;;;;;;;19.25;99.52;97777.03;5050923;28;20032;-79
2021/07/29 01:43:09;;;;;;;5.70;3.55;;;;;;;19.32;99.11;97776.41;5049845;28;20430;-80
2021/07/29 01:45:35;;;;;;;6.78;4.32;;;;;;;19.50;97.97;97777.69;5051187;28;20044;-81
2021/07/29 01:48:00;;;;;;;6.85;4.22;;;;;;;19.46;98.13;97778.75;5049414;28;20560;-79
2021/07/29 01:50:26;;;;;;;8.73;4.18;;;;;;;19.35;98.77;97774.88;5050857;28;20087;-79
2021/07/29 01:52:51;;;;;;;5.30;3.67;;;;;;;19.44;98.54;97775.56;5049655;28;20039;-80
2021/07/29 01:55:16;;;;;;;5.38;4.07;;;;;;;19.42;98.25;97781.44;5050586;28;20029;-80
2021/07/29 01:57:42;;;;;;;6.65;3.63;;;;;;;19.21;99.28;97776.13;5050886;28;20024;-80
2021/07/29 02:00:08;;;;;;;7.20;3.33;;;;;;;19.30;99.23;97789.00;5050979;28;20021;-78
2021/07/29 02:02:33;;;;;;;5.95;4.40;;;;;;;19.35;98.93;97791.53;5049593;28;20032;-79
2021/07/29 02:04:59;;;;;;;6.72;4.07;;;;;;;19.16;99.34;97786.69;5049323;28;20033;-80
2021/07/29 02:07:24;;;;;;;5.85;3.70;;;;;;;19.15;99.69;97794.19;5050910;28;20432;-80
2021/07/29 02:09:50;;;;;;;7.07;4.18;;;;;;;19.01;100.00;97787.47;5049688;28;20040;-78
2021/07/29 02:12:16;;;;;;;7.32;4.05;;;;;;;19.01;100.00;97781.91;5050576;28;20396;-79
2021/07/29 02:14:42;;;;;;;5.03;3.80;;;;;;;18.71;100.00;97770.38;5050513;28;20043;-80
2021/07/29 02:17:07;;;;;;;5.68;4.03;;;;;;;18.95;100.00;97794.41;5049288;28;20029;-78
2021/07/29 02:19:32;;;;;;;5.28;4.07;;;;;;;18.90;100.00;97792.69;5050588;28;20515;-79
2021/07/29 02:21:58;;;;;;;9.00;4.25;;;;;;;18.84;100.00;97794.13;5050617;28;20063;-80
2021/07/29 02:24:24;;;;;;;6.15;3.65;;;;;;;18.97;100.00;97794.88;5050384;28;20110;-79
2021/07/29 02:26:49;;;;;;;5.90;4.47;;;;;;;19.03;99.83;97794.25;5050331;28;20536;-78
2021/07/29 02:29:15;;;;;;;11.70;3.95;;;;;;;19.08;99.44;97796.75;5049029;28;20461;-80
2021/07/29 02:31:41;;;;;;;5.57;3.60;;;;;;;18.92;100.00;97795.13;5049064;28;20041;-80
2021/07/29 02:34:08;;;;;;;5.63;4.20;;;;;;;19.10;99.43;97797.22;5048949;28;20044;-79
2021/07/29 02:36:33;;;;;;;9.43;3.80;;;;;;;19.05;99.40;97799.44;5048931;28;20396;-78
2021/07/29 02:38:59;;;;;;;4.20;2.88;;;;;;;18.97;99.67;97798.44;5048669;28;20025;-80
2021/07/29 02:41:24;;;;;;;12.32;5.32;;;;;;;18.83;100.00;97803.56;5049096;28;20025;-80
2021/07/29 02:43:50;;;;;;;6.40;3.72;;;;;;;18.71;100.00;97806.41;5052635;28;20025;-81
2021/07/29 02:46:15;;;;;;;8.05;4.78;;;;;;;18.86;100.00;97811.19;5052734;28;20033;-79
2021/07/29 02:48:41;;;;;;;7.20;4.53;;;;;;;18.73;100.00;97815.97;5052940;28;20028;-78
2021/07/29 02:51:06;;;;;;;7.57;5.35;;;;;;;18.82;100.00;97818.63;5054291;28;20024;-80
2021/07/29 02:53:34;;;;;;;6.70;4.75;;;;;;;18.78;100.00;97814.94;5052765;28;20024;-79
2021/07/29 02:56:00;;;;;;;9.10;5.13;;;;;;;18.73;100.00;97817.97;5053028;28;20098;-81
2021/07/29 02:58:26;;;;;;;7.72;5.65;;;;;;;18.53;100.00;97810.63;5054035;28;20458;-78
2021/07/29 03:00:52;;;;;;;7.78;5.20;;;;;;;18.49;100.00;97826.28;5054133;28;20025;-78
2021/07/29 03:03:18;;;;;;;7.88;5.03;;;;;;;18.35;100.00;97820.34;5052743;28;20062;-79
2021/07/29 03:05:43;;;;;;;9.50;5.95;;;;;;;18.27;100.00;97824.03;5053895;28;20040;-80
2021/07/29 03:08:09;;;;;;;8.13;5.68;;;;;;;18.24;100.00;97830.25;5053672;28;20471;-79
2021/07/29 03:10:35;;;;;;;13.88;6.20;;;;;;;18.19;100.00;97834.09;5052616;28;20021;-79
2021/07/29 03:13:02;;;;;;;7.38;5.30;;;;;;;18.17;100.00;97834.41;5054039;28;20021;-79
2021/07/29 03:15:31;;;;;;;10.30;5.88;;;;;;;18.19;100.00;97845.16;5052753;28;20037;-78
2021/07/29 03:17:57;;;;;;;19.52;6.15;;;;;;;18.26;100.00;97839.03;5052231;28;20560;-78
2021/07/29 03:20:23;;;;;;;8.50;5.15;;;;;;;18.30;100.00;97843.53;5052550;28;20670;-80
2021/07/29 03:22:48;;;;;;;7.45;5.45;;;;;;;18.37;100.00;97848.47;5052389;28;20635;-78
2021/07/29 03:25:14;;;;;;;8.07;4.63;;;;;;;18.60;100.00;97844.09;5052289;28;20044;-79
2021/07/29 03:27:39;;;;;;;8.30;5.07;;;;;;;18.57;100.00;97840.06;5052078;28;20025;-78
2021/07/29 03:30:05;;;;;;;6.82;5.57;;;;;;;18.47;100.00;97848.00;5053354;28;20053;-78
2021/07/29 03:32:31;;;;;;;6.03;4.18;;;;;;;18.35;100.00;97845.25;5052268;28;20389;-80
2021/07/29 03:34:56;;;;;;;6.97;4.82;;;;;;;18.34;100.00;97849.19;5051989;28;20017;-79
2021/07/29 03:37:23;;;;;;;8.32;4.63;;;;;;;18.33;100.00;97850.31;5053321;28;20029;-79
2021/07/29 03:39:49;;;;;;;11.10;4.95;;;;;;;18.36;100.00;97844.91;5052046;28;20465;-79
2021/07/29 03:42:14;;;;;;;4.93;4.28;;;;;;;18.43;100.00;97849.84;5053359;28;20032;-78
2021/07/29 03:44:39;;;;;;;9.82;4.72;;;;;;;18.45;100.00;97845.56;5052026;28;20067;-79
2021/07/29 03:47:05;;;;;;;7.90;4.35;;;;;;;18.32;100.00;97851.50;5053089;28;20021;-78
2021/07/29 03:49:34;;;;;;;5.95;4.32;;;;;;;18.27;100.00;97855.28;5051965;28;20029;-80
2021/07/29 03:52:00;;;;;;;6.10;4.57;;;;;;;18.27;100.00;97860.84;5051952;28;20094;-77
2021/07/29 03:54:25;;;;;;;8.82;3.67;;;;;;;18.60;100.00;97855.16;5052968;28;20469;-79
2021/07/29 03:56:51;;;;;;;10.70;4.65;;;;;;;18.48;100.00;97857.94;5051344;28;20028;-81
2021/07/29 03:59:16;;;;;;;8.02;5.22;;;;;;;18.39;100.00;97846.16;5053143;28;20025;-79
2021/07/29 04:01:41;;;;;;;9.13;5.95;;;;;;;18.31;100.00;97855.41;5053102;28;20029;-79
2021/07/29 04:04:07;;;;;;;8.05;4.93;;;;;;;18.31;100.00;97863.72;5053288;28;20063;-78
2021/07/29 04:06:32;;;;;;;14.05;4.70;;;;;;;18.24;100.00;97864.31;5052966;28;20047;-80
2021/07/29 04:08:57;;;;;;;8.82;4.20;;;;;;;18.49;100.00;97865.06;5052661;28;20032;-79
2021/07/29 04:11:23;;;;;;;6.35;4.32;;;;;;;18.44;100.00;97854.25;5051524;28;20035;-79
2021/07/29 04:13:48;;;;;;;11.25;5.18;;;;;;;18.43;100.00;97860.94;5051261;28;20025;-78
2021/07/29 04:16:14;;;;;;;12.60;4.60;;;;;;;18.40;100.00;97862.44;5051116;28;20040;-81
2021/07/29 04:18:39;;;;;;;11.00;5.50;;;;;;;18.20;100.00;97864.19;5052886;28;20029;-79
2021/07/29 04:21:04;;;;;;;7.32;5.53;;;;;;;18.22;100.00;97872.16;5052755;28;20029;-78
2021/07/29 04:23:33;;;;;;;5.07;4.40;;;;;;;18.37;100.00;97873.41;5051449;28;20025;-79
2021/07/29 04:25:59;;;;;;;7.80;4.68;;;;;;;18.39;100.00;97874.66;5052184;28;20386;-78
2021/07/29 04:28:24;;;;;;;5.32;4.47;;;;;;;18.34;100.00;97883.22;5051031;28;20048;-82
2021/07/29 04:30:50;;;;;;;6.20;4.20;;;;;;;18.28;100.00;97873.53;5052061;28;20103;-80
2021/07/29 04:33:15;;;;;;;12.55;4.78;;;;;;;18.35;100.00;97879.31;5051490;28;20033;-80
2021/07/29 04:35:41;;;;;;;11.45;5.18;;;;;;;18.45;100.00;97884.34;5052500;28;20021;-81
2021/07/29 04:38:06;;;;;;;7.60;5.60;;;;;;;18.33;100.00;97889.91;5052467;28;20013;-79
2021/07/29 04:40:32;;;;;;;11.50;6.10;;;;;;;18.41;100.00;97880.69;5052299;28;20162;-80
2021/07/29 04:42:57;;;;;;;11.20;5.93;;;;;;;18.36;100.00;97883.66;5050853;28;20141;-79
2021/07/29 04:45:23;;;;;;;7.07;5.70;;;;;;;18.45;100.00;97883.56;5051933;28;20033;-80
2021/07/29 04:47:50;;;;;;;12.40;8.38;;;;;;;18.61;100.00;97890.00;5051097;28;20064;-79
2021/07/29 04:50:18;;;;;;;10.27;7.07;;;;;;;18.82;100.00;97900.97;5052574;28;20116;-83
2021/07/29 04:52:43;;;;;;;7.00;6.15;;;;;;;18.79;100.00;97902.47;5050263;28;20032;-80
2021/07/29 04:55:09;;;;;;;7.68;5.35;;;;;;;18.77;100.00;97899.22;5052687;28;20032;-81
2021/07/29 04:57:35;;;;;;;8.68;6.00;;;;;;;18.77;100.00;97892.88;5050644;28;20091;-81
2021/07/29 05:00:00;;;;;;;7.45;5.75;;;;;;;19.11;98.54;97904.19;5050530;28;20171;-79
2021/07/29 05:02:26;;;;;;;8.95;5.28;;;;;;;19.10;98.18;97899.84;5050714;28;20517;-80
2021/07/29 05:04:51;;;;;;;5.88;5.28;;;;;;;19.11;98.63;97903.38;5049686;28;20505;-79
2021/07/29 05:07:16;;;;;;;8.63;5.13;;;;;;;19.09;98.78;97900.97;5051961;28;20055;-80
2021/07/29 05:09:42;;;;;;;6.72;5.43;;;;;;;19.56;96.30;97905.88;5052182;28;20466;-79
2021/07/29 05:12:07;;;;;;;8.90;5.47;;;;;;;19.51;95.97;97911.72;5050503;28;20029;-80
2021/07/29 05:14:33;;;;;;;5.72;4.97;;;;;;;19.92;92.95;97904.88;5051384;28;20074;-80
2021/07/29 05:17:02;;;;;;;6.38;5.78;;;;;;;19.56;95.28;97917.81;5050256;28;20036;-80
2021/07/29 05:19:27;;;;;;;6.55;5.15;;;;;;;19.74;94.71;97910.75;5051701;28;20025;-79
2021/07/29 05:21:53;;;;;;;6.57;5.25;;;;;;;19.87;93.90;97916.22;5051300;28;20025;-78
2021/07/29 05:24:18;;;;;;;7.50;5.93;;;;;;;20.15;91.79;97925.28;5051371;28;20134;-79
2021/07/29 05:26:44;;;;;;;6.10;4.93;;;;;;;20.10;92.11;97929.16;5051117;28;20484;-80
2021/07/29 05:29:10;;;;;;;10.95;5.07;;;;;;;20.02;92.67;97926.53;5051301;28;20397;-79
2021/07/29 05:31:41;;;;;;;7.82;6.25;;;;;;;19.80;93.86;97918.84;5051985;28;20044;-79
2021/07/29 05:34:06;;;;;;;6.40;4.90;;;;;;;19.81;93.20;97915.69;5051966;28;20021;-78
2021/07/29 05:36:32;;;;;;;7.45;6.07;;;;;;;19.58;94.82;97918.25;5051542;28;20032;-78
2021/07/29 05:38:57;;;;;;;10.00;7.47;;;;;;;19.24;97.12;97919.66;5051254;28;20033;-79
2021/07/29 05:41:23;;;;;;;15.57;9.43;;;;;;;19.40;97.53;97930.00;5051027;28;20024;-79
2021/07/29 05:43:49;;;;;;;13.80;10.70;;;;;;;19.38;98.10;97930.34;5049727;28;20037;-78
2021/07/29 05:46:14;;;;;;;10.00;7.85;;;;;;;19.09;99.99;97922.34;5050774;28;20090;-79
2021/07/29 05:48:40;;;;;;;11.18;6.65;;;;;;;19.39;98.33;97931.16;5050886;28;20025;-80
2021/07/29 05:51:06;;;;;;;8.20;7.38;;;;;;;19.37;98.48;97923.19;5050626;28;20524;-80
2021/07/29 05:53:32;;;;;;;11.60;7.50;;;;;;;19.25;99.43;97937.09;5051262;28;20033;-80
2021/07/29 05:55:59;;;;;;;15.90;7.70;;;;;;;19.29;98.95;97931.66;5051160;28;20033;-78
2021/07/29 05:58:25;;;;;;;8.52;6.63;;;;;;;19.44;98.50;97933.69;5049069;28;20358;-78
2021/07/29 06:00:51;;;;;;;7.50;6.45;;;;;;;19.67;96.78;97945.84;5049847;28;20453;-80
2021/07/29 06:03:16;;;;;;;8.05;5.75;;;;;;;19.66;96.21;97945.03;5050897;28;20423;-78
2021/07/29 06:05:42;;;;;;;11.95;6.13;;;;;;;19.74;95.93;97946.84;5049051;28;20033;-79
2021/07/29 06:08:07;;;;;;;12.20;7.30;;;;;;;19.81;95.61;97940.69;5050834;28;20028;-79
2021/07/29 06:10:33;;;;;;;9.63;8.00;;;;;;;20.11;93.80;97941.09;5049650;28;20052;-79
2021/07/29 06:12:58;;;;;;;9.90;7.97;;;;;;;20.42;91.13;97934.72;5050420;28;20059;-78
2021/07/29 06:15:24;;;;;;;10.73;7.40;;;;;;;20.74;88.83;97945.44;5050853;28;20478;-78
2021/07/29 06:17:55;;;;;;;14.02;7.22;;;;;;;20.74;88.39;97942.66;5049007;28;20112;-80
2021/07/29 06:20:21;;;;;;;13.05;6.93;;;;;;;21.17;86.48;97957.56;5049159;28;20068;-78
2021/07/29 06:22:46;;;;;;;11.98;7.65;;;;;;;21.15;85.73;97952.34;5050584;28;20116;-78
2021/07/29 06:25:13;;;;;;;13.45;7.38;;;;;;;21.22;85.52;97946.13;5049019;28;20040;-80
2021/07/29 06:27:38;;;;;;;11.98;8.43;;;;;;;21.39;85.06;97953.25;5049421;28;20021;-78
2021/07/29 06:30:07;;;;;;;12.25;6.90;;;;;;;21.54;83.83;97952.34;5049065;28;20505;-79
2021/07/29 06:32:33;;;;;;;12.27;6.45;;;;;;;21.44;82.92;97947.38;5050722;28;20159;-79
2021/07/29 06:34:58;;;;;;;8.38;6.18;;;;;;;21.85;80.46;97952.19;5050753;28;20107;-79
2021/07/29 06:37:24;;;;;;;7.95;5.15;;;;;;;21.87;80.40;97938.69;5049247;28;20406;-78
2021/07/29 06:39:49;;;;;;;9.95;6.40;;;;;;;21.69;81.21;97945.91;5051028;28;20017;-78
2021/07/29 06:42:14;;;;;;;8.93;6.10;;;;;;;22.14;79.81;97948.78;5050768;28;20472;-78
2021/07/29 06:44:41;;;;;;;8.10;6.00;;;;;;;22.11;78.77;97951.50;5048832;28;20150;-78
2021/07/29 06:47:11;;;;;;;6.40;5.47;;;;;;;22.31;78.43;97951.06;5048811;28;20074;-78
2021/07/29 06:49:37;;;;;;;8.32;4.85;;;;;;;22.84;75.54;97953.91;5048965;28;20029;-78
2021/07/29 06:52:02;;;;;;;9.82;5.47;;;;;;;23.05;73.97;97954.25;5050509;28;20033;-79
2021/07/29 06:54:28;;;;;;;10.18;5.30;;;;;;;23.02;74.61;97965.34;5049081;28;20028;-78
2021/07/29 06:56:53;;;;;;;6.30;5.00;;;;;;;23.13;74.44;97969.09;5048854;28;20029;-78
2021/07/29 06:59:18;;;;;;;7.32;4.38;;;;;;;23.46;72.31;97964.38;5049997;28;20040;-78
2021/07/29 07:01:44;;;;;;;6.82;4.25;;;;;;;22.99;74.14;97963.31;5048976;28;20039;-78
2021/07/29 07:04:09;;;;;;;11.85;5.03;;;;;;;22.81;74.67;97963.03;5050434;28;20474;-78
2021/07/29 07:06:35;;;;;;;9.10;5.32;;;;;;;23.13;74.04;97980.25;5050307;28;20123;-79
2021/07/29 07:09:00;;;;;;;8.50;4.78;;;;;;;22.71;76.01;97969.28;5048988;28;20391;-78
2021/07/29 07:11:26;;;;;;;9.40;4.20;;;;;;;22.53;76.27;97965.34;5048906;28;20092;-79
2021/07/29 07:13:52;;;;;;;8.15;4.78;;;;;;;22.73;75.20;97964.13;5048669;28;20120;-78
2021/07/29 07:16:17;;;;;;;11.23;5.35;;;;;;;22.99;74.44;97978.09;5050314;28;20121;-78
2021/07/29 07:18:43;;;;;;;9.18;4.00;;;;;;;23.45;72.81;97978.75;5049633;28;20120;-78
2021/07/29 07:21:10;;;;;;;6.32;4.20;;;;;;;23.79;70.75;97976.75;5048884;28;20024;-78
2021/07/29 07:23:40;;;;;;;8.30;4.40;;;;;;;23.67;71.55;97974.22;5049210;28;20115;-78
2021/07/29 07:26:16;;;;;;;5.63;4.57;;;;;;;23.33;73.68;97968.59;5048880;28;20477;-78
2021/07/29 07:28:42;;;;;;;10.77;4.32;;;;;;;23.73;71.81;97961.53;5034223;28;20041;-78
2021/07/29 07:31:07;;;;;;;7.03;4.40;;;;;;;23.75;71.30;97967.53;5053831;28;20049;-78
2021/07/29 07:33:33;;;;;;;6.47;4.72;;;;;;;24.12;70.29;97967.59;5053817;28;20048;-78
2021/07/29 07:35:59;;;;;;;8.65;4.82;;;;;;;24.03;69.93;97965.03;5053935;28;20025;-78
2021/07/29 07:38:25;;;;;;;8.38;4.03;;;;;;;24.39;67.87;97972.63;5052666;28;20499;-78
2021/07/29 07:40:50;;;;;;;7.95;4.88;;;;;;;24.30;68.06;97963.75;5053733;28;20025;-77
2021/07/29 07:43:16;;;;;;;5.72;3.67;;;;;;;23.97;68.93;97972.16;5052651;28;20025;-78
2021/07/29 07:45:43;;;;;;;8.95;3.40;;;;;;;24.11;69.24;97968.72;5053298;28;20040;-78
2021/07/29 07:48:09;;;;;;;5.90;4.05;;;;;;;24.13;68.66;97958.78;5051995;28;20068;-79
2021/07/29 07:50:38;;;;;;;7.82;3.97;;;;;;;23.92;68.80;97955.75;5053744;28;20029;-78
2021/07/29 07:53:04;;;;;;;8.65;4.13;;;;;;;24.62;67.62;97963.25;5053477;28;20025;-78
2021/07/29 07:55:30;;;;;;;7.82;4.20;;;;;;;25.07;66.73;97954.38;5053641;28;20021;-78
2021/07/29 07:57:55;;;;;;;12.57;4.50;;;;;;;25.60;63.24;97968.69;5051979;28;20108;-78
2021/07/29 08:00:20;;;;;;;5.88;4.13;;;;;;;25.76;63.55;97966.34;5053267;28;20440;-77
2021/07/29 08:02:46;;;;;;;5.85;4.05;;;;;;;25.14;64.36;97968.44;5053621;28;20435;-78
2021/07/29 08:05:11;;;;;;;7.50;3.97;;;;;;;26.40;60.28;97961.72;5052299;28;20124;-77
2021/07/29 08:07:36;;;;;;;7.18;4.20;;;;;;;26.51;59.66;97968.16;5053308;28;20435;-78
2021/07/29 08:10:02;;;;;;;6.38;3.78;;;;;;;27.19;57.73;97954.09;5053865;28;20125;-78
2021/07/29 08:12:28;;;;;;;4.85;3.45;;;;;;;28.07;54.02;97954.56;5051973;28;20480;-77
2021/07/29 08:14:53;;;;;;;11.10;3.80;;;;;;;28.54;52.94;97961.47;5053297;28;20109;-76
2021/07/29 08:17:19;;;;;;;10.38;4.32;;;;;;;29.19;51.37;97959.72;5053378;28;20029;-76
2021/07/29 08:19:44;;;;;;;7.30;3.30;;;;;;;28.89;51.13;97951.94;5052852;28;20485;-78
2021/07/29 08:22:09;;;;;;;4.53;3.05;;;;;;;28.84;51.94;97955.22;5052878;28;20037;-77
2021/07/29 08:24:35;;;;;;;4.90;3.47;;;;;;;29.96;49.09;97948.75;5051503;28;20029;-76
2021/07/29 08:27:01;;;;;;;6.55;3.50;;;;;;;30.60;47.57;97946.63;5051318;28;20025;-76
2021/07/29 08:29:30;;;;;;;5.50;3.40;;;;;;;29.50;49.58;97941.69;5052912;28;20392;-77
2021/07/29 08:31:56;;;;;;;9.65;4.43;;;;;;;30.00;49.29;97932.59;5051246;28;20044;-76
2021/07/29 08:34:21;;;;;;;4.68;3.88;;;;;;;30.71;47.59;97935.13;5053274;28;20087;-76
2021/07/29 08:36:47;;;;;;;8.15;4.18;;;;;;;31.70;44.95;97939.75;5050939;28;20475;-76
2021/07/29 08:39:12;;;;;;;7.13;3.58;;;;;;;31.70;45.18;97928.44;5052084;28;20120;-75
2021/07/29 08:41:37;;;;;;;6.05;3.40;;;;;;;32.39;43.27;97943.50;5052319;28;20028;-76
2021/07/29 08:44:05;;;;;;;11.95;3.70;;;;;;;32.09;42.87;97927.59;5052294;28;20067;-77
2021/07/29 08:46:34;;;;;;;4.43;3.47;;;;;;;32.95;41.82;97930.00;5052562;28;20115;-76
2021/07/29 08:48:59;;;;;;;5.05;3.20;;;;;;;33.11;41.33;97941.31;5052812;28;20021;-76
2021/07/29 08:51:25;;;;;;;4.82;3.20;;;;;;;33.50;40.18;97934.56;5052736;28;20032;-77
2021/07/29 08:53:52;;;;;;;8.65;3.28;;;;;;;31.98;42.34;97923.41;5051357;28;20033;-77
2021/07/29 08:56:23;;;;;;;6.30;3.35;;;;;;;31.06;44.78;97928.06;5051784;28;20039;-76
2021/07/29 08:58:48;;;;;;;10.73;4.13;;;;;;;32.31;43.00;97923.03;5052347;28;20021;-76
2021/07/29 09:01:13;;;;;;;6.95;3.40;;;;;;;33.89;39.73;97924.94;5052531;28;20017;-76
2021/07/29 09:03:40;;;;;;;6.30;3.90;;;;;;;34.06;38.76;97920.75;5050597;28;20359;-76
2021/07/29 09:06:10;;;;;;;7.57;4.45;;;;;;;34.23;38.34;97925.13;5051748;28;20031;-77
2021/07/29 09:08:46;;;;;;;12.60;3.72;;;;;;;34.13;38.66;97922.63;5052152;28;20124;-76
2021/07/29 09:11:35;;;;;;;5.63;3.22;;;;;;;34.67;37.59;97917.63;5050969;28;20032;-76
2021/07/29 09:14:08;;;;;;;8.50;3.70;;;;;;;34.43;37.68;97919.19;5052371;28;20028;-76
2021/07/29 09:16:51;;;;;;;6.45;3.45;;;;;;;32.89;40.51;97906.25;5052370;28;20121;-77
2021/07/29 09:19:31;;;;;;;4.80;3.25;;;;;;;34.34;38.68;97913.41;5051894;28;20056;-77
2021/07/29 09:22:05;;;;;;;4.50;3.40;;;;;;;34.03;38.38;97912.34;5052062;28;20021;-76
2021/07/29 09:24:30;;;;;;;5.25;3.42;;;;;;;33.14;39.06;97905.63;5050676;28;20029;-78
2021/07/29 09:27:00;;;;;;;5.40;3.75;;;;;;;32.93;40.14;97903.31;5051514;28;20036;-76
2021/07/29 09:29:27;;;;;;;4.47;3.80;;;;;;;33.83;38.08;97890.63;5051592;28;20386;-75
2021/07/29 09:32:09;;;;;;;6.43;3.33;;;;;;;32.01;40.59;97880.84;5051524;28;20059;-79
2021/07/29 09:34:49;;;;;;;4.60;3.35;;;;;;;31.67;41.27;97886.09;5051456;28;20377;-77
2021/07/29 09:37:17;;;;;;;9.30;3.85;;;;;;;31.75;41.21;97874.16;5051082;28;20033;-77
2021/07/29 09:39:44;;;;;;;8.23;3.97;;;;;;;32.18;40.95;97874.00;5050155;28;20025;-78
2021/07/29 09:42:37;;;;;;;4.32;3.85;;;;;;;34.60;36.21;97895.13;5051456;28;20032;-77
2021/07/29 09:45:03;;;;;;;6.13;3.22;;;;;;;34.05;37.00;97890.00;5048840;28;20072;-77
2021/07/29 09:47:35;;;;;;;9.13;3.53;;;;;;;35.21;35.15;97893.84;5049557;28;20063;-75
2021/07/29 09:50:01;;;;;;;5.97;4.55;;;;;;;33.18;38.26;97883.59;5051452;28;20029;-78
2021/07/29 09:52:27;;;;;;;8.55;3.70;;;;;;;31.72;40.80;97880.69;5049453;28;20017;-77
2021/07/29 09:54:55;;;;;;;6.03;3.58;;;;;;;32.65;39.10;97870.84;5050669;28;20110;-76
2021/07/29 09:57:20;;;;;;;6.38;3.20;;;;;;;33.21;37.76;97865.69;5050716;28;20016;-76
2021/07/29 09:59:45;;;;;;;5.93;3.60;;;;;;;34.16;36.26;97873.41;5049673;28;20033;-78
2021/07/29 10:02:12;;;;;;;4.05;2.92;;;;;;;35.62;33.78;97870.75;5051274;28;20047;-78
2021/07/29 10:04:48;;;;;;;7.30;4.93;;;;;;;34.92;34.51;97869.25;5051013;28;20083;-75
2021/07/29 10:07:24;;;;;;;6.68;4.03;;;;;;;34.54;35.74;97862.00;5050923;28;20028;-78
2021/07/29 10:09:52;;;;;;;7.68;3.38;;;;;;;35.07;34.90;97860.19;5049482;28;20032;-76
2021/07/29 10:12:25;;;;;;;9.05;3.55;;;;;;;34.25;35.78;97859.31;5051173;28;20029;-77
2021/07/29 10:14:52;;;;;;;5.55;3.70;;;;;;;33.82;36.84;97851.34;5049141;28;20423;-77
2021/07/29 10:17:38;;;;;;;7.25;3.75;;;;;;;34.77;34.50;97848.22;5049589;28;20064;-77
2021/07/29 10:20:12;;;;;;;9.90;3.50;;;;;;;34.32;35.13;97848.53;5049385;28;20067;-77
2021/07/29 10:22:38;;;;;;;;;;;;;;;35.13;33.85;97847.78;5051568;28;20025;-77
2021/07/29 10:25:04;;;;;;;5.30;3.33;;;;;;;33.18;36.98;97841.06;5050908;28;20399;-78
2021/07/29 10:27:29;;;;;;;5.45;3.30;;;;;;;34.78;34.87;97832.75;5050498;28;20037;-76
2021/07/29 10:30:28;;;;;;;7.90;4.72;;;;;;;33.53;36.91;97830.72;5049323;28;20041;-76
2021/07/29 10:32:54;;;;;;;7.45;4.10;;;;;;;33.87;36.30;97831.69;5017487;28;20059;-77
2021/07/29 10:35:25;;;;;;;6.30;4.82;;;;;;;34.92;34.65;97837.94;5051031;28;20029;-77
2021/07/29 10:37:53;;;;;;;5.88;4.38;;;;;;;33.14;37.79;97824.16;5050698;28;20101;-77
2021/07/29 10:40:33;;;;;;;5.10;3.45;;;;;;;31.55;40.50;97813.97;5050404;28;20466;-76
2021/07/29 10:43:23;;;;;;;5.85;3.67;;;;;;;32.33;39.34;97812.91;5050077;28;20460;-76
2021/07/29 10:45:49;;;;;;;7.53;4.70;;;;;;;31.73;40.30;97805.09;5048579;28;20033;-76
2021/07/29 10:48:45;;;;;;;6.63;3.78;;;;;;;31.00;41.68;97816.75;5050162;28;20036;-76
2021/07/29 10:51:24;;;;;;;7.70;4.20;;;;;;;30.92;42.13;97806.81;5040524;28;20037;-77
2021/07/29 10:53:55;;;;;;;5.93;3.75;;;;;;;30.36;43.28;97781.16;5050380;28;20082;-78
2021/07/29 10:56:23;;;;;;;8.60;3.95;;;;;;;30.70;42.76;97798.72;5050412;28;20040;-76
2021/07/29 10:58:51;;;;;;;5.82;4.30;;;;;;;30.55;43.00;97797.38;5050304;28;20021;-76
2021/07/29 11:01:17;;;;;;;10.20;5.32;;;;;;;30.49;43.33;97796.28;5048858;28;20029;-78
2021/07/29 11:06:36;;;;;;;6.95;3.70;;;;;;;29.22;46.18;97790.56;5054352;28;20060;-79
2021/07/29 11:09:18;;;;;;;8.70;4.10;;;;;;;28.87;47.04;97785.38;5053435;28;20029;-78
2021/07/29 11:11:48;;;;;;;6.05;3.40;;;;;;;29.25;46.05;97785.34;5055106;28;20087;-77
2021/07/29 11:14:34;;;;;;;6.47;3.88;;;;;;;30.35;43.57;97779.59;5054242;28;20021;-77
2021/07/29 11:17:03;;;;;;;;;;;;;;;30.43;43.86;97777.44;5054048;28;20099;-76
2021/07/29 11:19:32;;;;;;;6.85;4.10;;;;;;;30.34;44.35;97777.19;5054079;28;19964;-77
2021/07/29 11:22:02;;;;;;;5.53;3.53;;;;;;;30.71;43.33;97768.44;5052476;28;20021;-76
2021/07/29 11:24:28;;;;;;;5.03;3.47;;;;;;;30.99;42.27;97775.56;5055432;28;20485;-76
2021/07/29 11:26:53;;;;;;;5.38;4.22;;;;;;;30.74;42.85;97770.41;5053484;28;20067;-77
2021/07/29 11:29:19;;;;;;;7.43;4.22;;;;;;;30.32;44.25;97754.25;5052660;28;20022;-77
2021/07/29 11:31:44;;;;;;;8.35;4.05;;;;;;;29.95;44.78;97756.06;5051902;28;20493;-81
2021/07/29 11:34:10;;;;;;;5.88;4.32;;;;;;;29.35;45.80;97745.72;5053939;28;20025;-78